sensor_id;sensor_type;location;lat;lon;timestamp;P1;durP1;ratioP1;P2;durP2;ratioP2
781;SDS011;374;52.568;13.402;2022-09-09T00:01:37;9.97;;;9.00;;
781;SDS011;374;52.568;13.402;2022-09-09T00:09:49;9.33;;;8.43;;
781;SDS011;374;52.568;13.402;2022-09-09T00:15:25;10.17;;;9.10;;
781;SDS011;374;52.568;13.402;2022-09-09T00:18:25;9.97;;;9.07;;
781;SDS011;374;52.568;13.402;2022-09-09T00:20:58;9.90;;;9.00;;
781;SDS011;374;52.568;13.402;2022-09-09T00:23:42;9.50;;;8.70;;
781;SDS011;374;52.568;13.402;2022-09-09T00:26:14;9.07;;;8.23;;
781;SDS011;374;52.568;13.402;2022-09-09T00:29:00;9.00;;;8.07;;
781;SDS011;374;52.568;13.402;2022-09-09T00:31:33;10.83;;;9.50;;
781;SDS011;374;52.568;13.402;2022-09-09T00:34:12;9.30;;;8.47;;
781;SDS011;374;52.568;13.402;2022-09-09T00:36:41;11.10;;;9.07;;
781;SDS011;374;52.568;13.402;2022-09-09T00:39:15;9.80;;;8.80;;
781;SDS011;374;52.568;13.402;2022-09-09T00:44:59;10.73;;;9.73;;
781;SDS011;374;52.568;13.402;2022-09-09T00:47:43;10.13;;;9.17;;
781;SDS011;374;52.568;13.402;2022-09-09T00:50:35;9.90;;;9.00;;
781;SDS011;374;52.568;13.402;2022-09-09T00:58:36;9.43;;;8.63;;
781;SDS011;374;52.568;13.402;2022-09-09T01:01:07;9.83;;;8.50;;
781;SDS011;374;52.568;13.402;2022-09-09T01:09:10;9.80;;;8.90;;
781;SDS011;374;52.568;13.402;2022-09-09T01:14:49;8.93;;;8.03;;
781;SDS011;374;52.568;13.402;2022-09-09T01:17:31;10.37;;;9.40;;
781;SDS011;374;52.568;13.402;2022-09-09T01:20:03;9.87;;;8.90;;
781;SDS011;374;52.568;13.402;2022-09-09T01:22:42;12.67;;;9.50;;
781;SDS011;374;52.568;13.402;2022-09-09T01:28:03;11.70;;;10.60;;
781;SDS011;374;52.568;13.402;2022-09-09T01:30:33;9.97;;;9.07;;
781;SDS011;374;52.568;13.402;2022-09-09T01:33:03;9.83;;;8.97;;
781;SDS011;374;52.568;13.402;2022-09-09T01:38:19;11.30;;;10.20;;
781;SDS011;374;52.568;13.402;2022-09-09T01:40:45;9.93;;;9.10;;
781;SDS011;374;52.568;13.402;2022-09-09T01:43:10;10.17;;;9.17;;
781;SDS011;374;52.568;13.402;2022-09-09T01:45:36;10.27;;;9.27;;
781;SDS011;374;52.568;13.402;2022-09-09T01:48:04;12.87;;;10.27;;
781;SDS011;374;52.568;13.402;2022-09-09T01:50:29;10.67;;;9.70;;
781;SDS011;374;52.568;13.402;2022-09-09T01:52:57;11.00;;;9.90;;
781;SDS011;374;52.568;13.402;2022-09-09T01:55:29;11.17;;;10.07;;
781;SDS011;374;52.568;13.402;2022-09-09T02:01:06;11.30;;;10.20;;
781;SDS011;374;52.568;13.402;2022-09-09T02:03:57;16.37;;;10.90;;
781;SDS011;374;52.568;13.402;2022-09-09T02:06:28;12.40;;;11.07;;
781;SDS011;374;52.568;13.402;2022-09-09T02:08:59;11.37;;;10.37;;
781;SDS011;374;52.568;13.402;2022-09-09T02:11:27;12.37;;;11.17;;
781;SDS011;374;52.568;13.402;2022-09-09T02:13:57;12.57;;;11.30;;
781;SDS011;374;52.568;13.402;2022-09-09T02:16:38;11.27;;;10.10;;
781;SDS011;374;52.568;13.402;2022-09-09T02:19:44;11.40;;;10.30;;
781;SDS011;374;52.568;13.402;2022-09-09T02:22:13;11.87;;;10.67;;
781;SDS011;374;52.568;13.402;2022-09-09T02:24:42;12.63;;;11.30;;
781;SDS011;374;52.568;13.402;2022-09-09T02:27:09;11.20;;;10.10;;
781;SDS011;374;52.568;13.402;2022-09-09T02:29:40;11.20;;;10.20;;
781;SDS011;374;52.568;13.402;2022-09-09T02:32:09;13.00;;;11.43;;
781;SDS011;374;52.568;13.402;2022-09-09T02:34:40;11.30;;;10.20;;
781;SDS011;374;52.568;13.402;2022-09-09T02:37:09;11.10;;;10.00;;
781;SDS011;374;52.568;13.402;2022-09-09T02:39:36;10.73;;;9.63;;
781;SDS011;374;52.568;13.402;2022-09-09T02:42:02;10.87;;;9.80;;
781;SDS011;374;52.568;13.402;2022-09-09T02:44:29;11.90;;;10.70;;
781;SDS011;374;52.568;13.402;2022-09-09T02:52:27;10.40;;;9.37;;
781;SDS011;374;52.568;13.402;2022-09-09T02:56:07;11.17;;;10.03;;
781;SDS011;374;52.568;13.402;2022-09-09T02:58:19;16.40;;;10.20;;
781;SDS011;374;52.568;13.402;2022-09-09T03:00:46;10.40;;;9.40;;
781;SDS011;374;52.568;13.402;2022-09-09T03:03:14;10.43;;;9.27;;
781;SDS011;374;52.568;13.402;2022-09-09T03:05:41;10.67;;;9.70;;
781;SDS011;374;52.568;13.402;2022-09-09T03:08:08;9.93;;;9.03;;
781;SDS011;374;52.568;13.402;2022-09-09T03:10:34;9.93;;;8.97;;
781;SDS011;374;52.568;13.402;2022-09-09T03:13:00;11.93;;;10.47;;
781;SDS011;374;52.568;13.402;2022-09-09T03:15:26;10.40;;;9.33;;
781;SDS011;374;52.568;13.402;2022-09-09T03:17:56;10.17;;;9.20;;
781;SDS011;374;52.568;13.402;2022-09-09T03:20:25;10.77;;;9.77;;
781;SDS011;374;52.568;13.402;2022-09-09T03:22:53;12.07;;;10.27;;
781;SDS011;374;52.568;13.402;2022-09-09T03:25:19;11.20;;;9.30;;
781;SDS011;374;52.568;13.402;2022-09-09T03:27:45;11.27;;;10.17;;
781;SDS011;374;52.568;13.402;2022-09-09T03:30:10;11.87;;;10.37;;
781;SDS011;374;52.568;13.402;2022-09-09T03:32:36;10.30;;;9.30;;
781;SDS011;374;52.568;13.402;2022-09-09T03:35:02;10.53;;;9.43;;
781;SDS011;374;52.568;13.402;2022-09-09T03:37:28;10.80;;;9.67;;
781;SDS011;374;52.568;13.402;2022-09-09T03:39:54;10.73;;;9.63;;
781;SDS011;374;52.568;13.402;2022-09-09T03:42:19;10.67;;;9.60;;
781;SDS011;374;52.568;13.402;2022-09-09T03:44:45;10.47;;;9.37;;
781;SDS011;374;52.568;13.402;2022-09-09T03:47:18;10.93;;;9.00;;
781;SDS011;374;52.568;13.402;2022-09-09T03:49:44;11.03;;;9.90;;
781;SDS011;374;52.568;13.402;2022-09-09T03:52:10;10.70;;;9.70;;
781;SDS011;374;52.568;13.402;2022-09-09T03:54:36;10.70;;;9.10;;
781;SDS011;374;52.568;13.402;2022-09-09T03:57:02;9.50;;;8.50;;
781;SDS011;374;52.568;13.402;2022-09-09T03:59:28;13.20;;;8.57;;
781;SDS011;374;52.568;13.402;2022-09-09T04:01:53;10.53;;;9.43;;
781;SDS011;374;52.568;13.402;2022-09-09T04:04:19;10.03;;;9.13;;
781;SDS011;374;52.568;13.402;2022-09-09T04:06:45;10.00;;;9.00;;
781;SDS011;374;52.568;13.402;2022-09-09T04:09:13;10.73;;;9.23;;
781;SDS011;374;52.568;13.402;2022-09-09T04:11:39;8.70;;;7.90;;
781;SDS011;374;52.568;13.402;2022-09-09T04:14:04;9.50;;;8.50;;
781;SDS011;374;52.568;13.402;2022-09-09T04:16:31;9.03;;;8.20;;
781;SDS011;374;52.568;13.402;2022-09-09T04:18:57;8.27;;;7.53;;
781;SDS011;374;52.568;13.402;2022-09-09T04:21:24;9.67;;;8.57;;
781;SDS011;374;52.568;13.402;2022-09-09T04:23:50;8.60;;;7.80;;
781;SDS011;374;52.568;13.402;2022-09-09T04:26:16;9.27;;;8.33;;
781;SDS011;374;52.568;13.402;2022-09-09T04:28:42;7.60;;;6.90;;
781;SDS011;374;52.568;13.402;2022-09-09T04:31:08;10.33;;;8.60;;
781;SDS011;374;52.568;13.402;2022-09-09T04:33:46;8.30;;;7.50;;
781;SDS011;374;52.568;13.402;2022-09-09T04:36:12;8.33;;;7.53;;
781;SDS011;374;52.568;13.402;2022-09-09T04:38:38;8.60;;;7.70;;
781;SDS011;374;52.568;13.402;2022-09-09T04:41:03;9.50;;;8.70;;
781;SDS011;374;52.568;13.402;2022-09-09T04:43:29;9.10;;;7.80;;
781;SDS011;374;52.568;13.402;2022-09-09T04:45:55;8.73;;;7.40;;
781;SDS011;374;52.568;13.402;2022-09-09T04:48:21;9.17;;;7.77;;
781;SDS011;374;52.568;13.402;2022-09-09T04:51:06;8.30;;;7.50;;
781;SDS011;374;52.568;13.402;2022-09-09T04:53:34;9.40;;;8.50;;
781;SDS011;374;52.568;13.402;2022-09-09T04:58:29;8.90;;;7.40;;
781;SDS011;374;52.568;13.402;2022-09-09T05:01:02;8.63;;;7.60;;
781;SDS011;374;52.568;13.402;2022-09-09T05:03:28;11.67;;;7.93;;
781;SDS011;374;52.568;13.402;2022-09-09T05:05:54;9.63;;;7.13;;
781;SDS011;374;52.568;13.402;2022-09-09T05:08:21;10.27;;;7.80;;
781;SDS011;374;52.568;13.402;2022-09-09T05:10:47;9.10;;;8.20;;
781;SDS011;374;52.568;13.402;2022-09-09T05:13:13;8.90;;;8.10;;
781;SDS011;374;52.568;13.402;2022-09-09T05:15:38;8.90;;;8.07;;
781;SDS011;374;52.568;13.402;2022-09-09T05:18:04;8.90;;;8.20;;
781;SDS011;374;52.568;13.402;2022-09-09T05:20:30;8.20;;;7.40;;
781;SDS011;374;52.568;13.402;2022-09-09T05:22:56;9.60;;;7.87;;
781;SDS011;374;52.568;13.402;2022-09-09T05:25:22;9.13;;;8.23;;
781;SDS011;374;52.568;13.402;2022-09-09T05:27:50;8.27;;;7.47;;
781;SDS011;374;52.568;13.402;2022-09-09T05:30:18;8.90;;;7.40;;
781;SDS011;374;52.568;13.402;2022-09-09T05:32:44;7.20;;;6.60;;
781;SDS011;374;52.568;13.402;2022-09-09T05:35:09;8.33;;;7.23;;
781;SDS011;374;52.568;13.402;2022-09-09T05:37:35;7.80;;;7.07;;
781;SDS011;374;52.568;13.402;2022-09-09T05:40:00;8.73;;;7.90;;
781;SDS011;374;52.568;13.402;2022-09-09T05:42:29;8.07;;;7.27;;
781;SDS011;374;52.568;13.402;2022-09-09T05:44:55;8.33;;;7.47;;
781;SDS011;374;52.568;13.402;2022-09-09T05:47:21;8.10;;;7.30;;
781;SDS011;374;52.568;13.402;2022-09-09T05:49:46;11.33;;;7.80;;
781;SDS011;374;52.568;13.402;2022-09-09T05:52:12;12.30;;;8.13;;
781;SDS011;374;52.568;13.402;2022-09-09T05:54:37;8.40;;;7.53;;
781;SDS011;374;52.568;13.402;2022-09-09T05:57:04;8.53;;;7.73;;
781;SDS011;374;52.568;13.402;2022-09-09T05:59:29;8.67;;;7.87;;
781;SDS011;374;52.568;13.402;2022-09-09T06:01:55;8.13;;;7.33;;
781;SDS011;374;52.568;13.402;2022-09-09T06:04:21;9.63;;;8.63;;
781;SDS011;374;52.568;13.402;2022-09-09T06:06:47;11.27;;;8.30;;
781;SDS011;374;52.568;13.402;2022-09-09T06:09:13;7.50;;;6.60;;
781;SDS011;374;52.568;13.402;2022-09-09T06:11:40;8.40;;;7.60;;
781;SDS011;374;52.568;13.402;2022-09-09T06:14:06;11.10;;;7.80;;
781;SDS011;374;52.568;13.402;2022-09-09T06:16:32;7.30;;;6.60;;
781;SDS011;374;52.568;13.402;2022-09-09T06:18:59;8.23;;;6.90;;
781;SDS011;374;52.568;13.402;2022-09-09T06:21:29;9.07;;;8.20;;
781;SDS011;374;52.568;13.402;2022-09-09T06:23:58;10.70;;;8.80;;
781;SDS011;374;52.568;13.402;2022-09-09T06:26:25;11.77;;;7.20;;
781;SDS011;374;52.568;13.402;2022-09-09T06:28:52;7.27;;;6.33;;
781;SDS011;374;52.568;13.402;2022-09-09T06:31:20;6.53;;;6.00;;
781;SDS011;374;52.568;13.402;2022-09-09T06:33:47;10.63;;;6.83;;
781;SDS011;374;52.568;13.402;2022-09-09T06:36:15;10.17;;;6.10;;
781;SDS011;374;52.568;13.402;2022-09-09T06:38:42;9.10;;;6.00;;
781;SDS011;374;52.568;13.402;2022-09-09T06:41:08;7.10;;;6.40;;
781;SDS011;374;52.568;13.402;2022-09-09T06:43:35;7.30;;;6.37;;
781;SDS011;374;52.568;13.402;2022-09-09T06:46:03;7.60;;;6.47;;
781;SDS011;374;52.568;13.402;2022-09-09T06:48:31;8.93;;;6.13;;
781;SDS011;374;52.568;13.402;2022-09-09T06:51:04;6.83;;;6.17;;
781;SDS011;374;52.568;13.402;2022-09-09T06:53:38;7.50;;;5.70;;
781;SDS011;374;52.568;13.402;2022-09-09T06:58:36;7.30;;;5.93;;
781;SDS011;374;52.568;13.402;2022-09-09T07:01:08;9.90;;;6.47;;
781;SDS011;374;52.568;13.402;2022-09-09T07:03:34;7.47;;;5.70;;
781;SDS011;374;52.568;13.402;2022-09-09T07:06:00;7.13;;;6.00;;
781;SDS011;374;52.568;13.402;2022-09-09T07:08:26;6.80;;;5.73;;
781;SDS011;374;52.568;13.402;2022-09-09T07:10:52;8.80;;;6.13;;
781;SDS011;374;52.568;13.402;2022-09-09T07:13:24;6.80;;;5.87;;
781;SDS011;374;52.568;13.402;2022-09-09T07:15:51;7.07;;;6.07;;
781;SDS011;374;52.568;13.402;2022-09-09T07:18:17;7.40;;;5.37;;
781;SDS011;374;52.568;13.402;2022-09-09T07:20:42;5.77;;;5.27;;
781;SDS011;374;52.568;13.402;2022-09-09T07:23:17;5.40;;;4.90;;
781;SDS011;374;52.568;13.402;2022-09-09T07:25:46;5.10;;;4.60;;
781;SDS011;374;52.568;13.402;2022-09-09T07:28:12;6.30;;;4.97;;
781;SDS011;374;52.568;13.402;2022-09-09T07:30:38;8.00;;;5.00;;
781;SDS011;374;52.568;13.402;2022-09-09T07:33:05;4.83;;;4.43;;
781;SDS011;374;52.568;13.402;2022-09-09T07:35:30;9.63;;;4.90;;
781;SDS011;374;52.568;13.402;2022-09-09T07:37:56;7.13;;;4.50;;
781;SDS011;374;52.568;13.402;2022-09-09T07:40:23;5.60;;;5.10;;
781;SDS011;374;52.568;13.402;2022-09-09T07:42:49;6.30;;;4.43;;
781;SDS011;374;52.568;13.402;2022-09-09T07:45:14;10.90;;;4.80;;
781;SDS011;374;52.568;13.402;2022-09-09T07:47:40;9.20;;;4.27;;
781;SDS011;374;52.568;13.402;2022-09-09T07:50:07;7.07;;;4.17;;
781;SDS011;374;52.568;13.402;2022-09-09T07:52:34;6.00;;;4.63;;
781;SDS011;374;52.568;13.402;2022-09-09T07:55:00;9.87;;;3.60;;
781;SDS011;374;52.568;13.402;2022-09-09T07:57:27;5.30;;;4.47;;
781;SDS011;374;52.568;13.402;2022-09-09T07:59:55;4.70;;;4.27;;
781;SDS011;374;52.568;13.402;2022-09-09T08:02:21;7.47;;;4.97;;
781;SDS011;374;52.568;13.402;2022-09-09T08:04:48;4.40;;;4.07;;
781;SDS011;374;52.568;13.402;2022-09-09T08:07:13;5.67;;;4.10;;
781;SDS011;374;52.568;13.402;2022-09-09T08:09:39;6.40;;;3.90;;
781;SDS011;374;52.568;13.402;2022-09-09T08:12:05;3.83;;;3.37;;
781;SDS011;374;52.568;13.402;2022-09-09T08:14:33;3.93;;;3.17;;
781;SDS011;374;52.568;13.402;2022-09-09T08:16:59;5.67;;;4.10;;
781;SDS011;374;52.568;13.402;2022-09-09T08:19:25;4.33;;;3.87;;
781;SDS011;374;52.568;13.402;2022-09-09T08:21:50;7.07;;;3.03;;
781;SDS011;374;52.568;13.402;2022-09-09T08:24:16;4.13;;;3.57;;
781;SDS011;374;52.568;13.402;2022-09-09T08:26:45;2.93;;;2.67;;
781;SDS011;374;52.568;13.402;2022-09-09T08:29:14;3.70;;;3.40;;
781;SDS011;374;52.568;13.402;2022-09-09T08:31:41;6.40;;;3.30;;
781;SDS011;374;52.568;13.402;2022-09-09T08:34:08;3.30;;;3.00;;
781;SDS011;374;52.568;13.402;2022-09-09T08:36:37;4.40;;;3.00;;
781;SDS011;374;52.568;13.402;2022-09-09T08:39:05;3.70;;;2.87;;
781;SDS011;374;52.568;13.402;2022-09-09T08:41:35;5.30;;;2.97;;
781;SDS011;374;52.568;13.402;2022-09-09T08:55:41;2.97;;;2.53;;
781;SDS011;374;52.568;13.402;2022-09-09T08:58:12;3.90;;;2.87;;
781;SDS011;374;52.568;13.402;2022-09-09T09:00:43;2.63;;;2.43;;
781;SDS011;374;52.568;13.402;2022-09-09T09:06:10;3.77;;;2.80;;
781;SDS011;374;52.568;13.402;2022-09-09T09:08:51;3.20;;;2.50;;
781;SDS011;374;52.568;13.402;2022-09-09T09:11:25;4.97;;;2.70;;
781;SDS011;374;52.568;13.402;2022-09-09T09:14:10;4.30;;;3.13;;
781;SDS011;374;52.568;13.402;2022-09-09T09:19:24;2.53;;;2.30;;
781;SDS011;374;52.568;13.402;2022-09-09T09:22:03;3.90;;;2.70;;
781;SDS011;374;52.568;13.402;2022-09-09T09:24:40;3.30;;;3.00;;
781;SDS011;374;52.568;13.402;2022-09-09T09:30:19;3.77;;;2.60;;
781;SDS011;374;52.568;13.402;2022-09-09T09:32:51;4.33;;;2.60;;
781;SDS011;374;52.568;13.402;2022-09-09T09:35:30;3.63;;;2.43;;
781;SDS011;374;52.568;13.402;2022-09-09T09:37:55;3.27;;;2.60;;
781;SDS011;374;52.568;13.402;2022-09-09T09:40:21;2.50;;;2.07;;
781;SDS011;374;52.568;13.402;2022-09-09T09:43:21;3.63;;;3.00;;
781;SDS011;374;52.568;13.402;2022-09-09T09:45:43;3.03;;;2.50;;
781;SDS011;374;52.568;13.402;2022-09-09T09:48:12;3.50;;;3.00;;
781;SDS011;374;52.568;13.402;2022-09-09T09:50:49;5.33;;;4.27;;
781;SDS011;374;52.568;13.402;2022-09-09T09:53:33;3.67;;;3.10;;
781;SDS011;374;52.568;13.402;2022-09-09T09:56:02;3.30;;;2.77;;
781;SDS011;374;52.568;13.402;2022-09-09T09:58:31;4.87;;;3.03;;
781;SDS011;374;52.568;13.402;2022-09-09T10:00:59;3.17;;;2.97;;
781;SDS011;374;52.568;13.402;2022-09-09T10:06:02;4.40;;;3.20;;
781;SDS011;374;52.568;13.402;2022-09-09T10:08:28;2.97;;;2.73;;
781;SDS011;374;52.568;13.402;2022-09-09T10:10:59;3.20;;;2.90;;
781;SDS011;374;52.568;13.402;2022-09-09T10:22:02;4.80;;;3.20;;
781;SDS011;374;52.568;13.402;2022-09-09T10:30:43;3.50;;;2.60;;
781;SDS011;374;52.568;13.402;2022-09-09T10:36:18;3.87;;;2.57;;
781;SDS011;374;52.568;13.402;2022-09-09T10:42:00;2.70;;;2.50;;
781;SDS011;374;52.568;13.402;2022-09-09T10:44:52;5.13;;;2.63;;
781;SDS011;374;52.568;13.402;2022-09-09T10:47:42;4.63;;;3.17;;
781;SDS011;374;52.568;13.402;2022-09-09T10:50:32;5.43;;;4.93;;
781;SDS011;374;52.568;13.402;2022-09-09T10:53:35;5.93;;;5.33;;
781;SDS011;374;52.568;13.402;2022-09-09T10:56:19;3.53;;;2.93;;
781;SDS011;374;52.568;13.402;2022-09-09T10:58:50;2.50;;;2.30;;
781;SDS011;374;52.568;13.402;2022-09-09T11:03:52;2.70;;;1.90;;
781;SDS011;374;52.568;13.402;2022-09-09T11:06:49;4.37;;;2.70;;
781;SDS011;374;52.568;13.402;2022-09-09T11:09:21;3.37;;;2.50;;
781;SDS011;374;52.568;13.402;2022-09-09T11:11:53;2.60;;;2.40;;
781;SDS011;374;52.568;13.402;2022-09-09T11:14:28;3.03;;;2.73;;
781;SDS011;374;52.568;13.402;2022-09-09T11:17:10;5.63;;;3.10;;
781;SDS011;374;52.568;13.402;2022-09-09T11:19:48;5.10;;;3.73;;
781;SDS011;374;52.568;13.402;2022-09-09T11:25:20;2.60;;;2.40;;
781;SDS011;374;52.568;13.402;2022-09-09T11:28:06;3.37;;;2.90;;
781;SDS011;374;52.568;13.402;2022-09-09T11:36:16;3.47;;;2.73;;
781;SDS011;374;52.568;13.402;2022-09-09T11:41:39;3.00;;;2.80;;
781;SDS011;374;52.568;13.402;2022-09-09T11:44:10;2.47;;;2.27;;
781;SDS011;374;52.568;13.402;2022-09-09T11:46:38;3.53;;;2.67;;
781;SDS011;374;52.568;13.402;2022-09-09T11:49:05;4.90;;;3.43;;
781;SDS011;374;52.568;13.402;2022-09-09T11:51:32;5.53;;;2.70;;
781;SDS011;374;52.568;13.402;2022-09-09T11:53:59;2.73;;;2.50;;
781;SDS011;374;52.568;13.402;2022-09-09T12:01:49;3.30;;;2.67;;
781;SDS011;374;52.568;13.402;2022-09-09T12:06:57;4.50;;;3.07;;
781;SDS011;374;52.568;13.402;2022-09-09T12:14:53;2.77;;;2.30;;
781;SDS011;374;52.568;13.402;2022-09-09T12:17:28;3.10;;;2.13;;
781;SDS011;374;52.568;13.402;2022-09-09T12:22:51;6.80;;;5.23;;
781;SDS011;374;52.568;13.402;2022-09-09T12:30:44;7.20;;;6.50;;
781;SDS011;374;52.568;13.402;2022-09-09T12:33:18;9.00;;;5.63;;
781;SDS011;374;52.568;13.402;2022-09-09T12:35:45;11.27;;;8.63;;
781;SDS011;374;52.568;13.402;2022-09-09T12:38:18;8.83;;;7.33;;
781;SDS011;374;52.568;13.402;2022-09-09T12:40:56;5.87;;;4.40;;
781;SDS011;374;52.568;13.402;2022-09-09T12:43:23;4.63;;;4.23;;
781;SDS011;374;52.568;13.402;2022-09-09T12:45:51;7.13;;;4.80;;
781;SDS011;374;52.568;13.402;2022-09-09T12:48:27;3.70;;;3.30;;
781;SDS011;374;52.568;13.402;2022-09-09T12:50:57;5.70;;;3.43;;
781;SDS011;374;52.568;13.402;2022-09-09T12:53:25;5.33;;;3.97;;
781;SDS011;374;52.568;13.402;2022-09-09T12:55:59;3.60;;;3.03;;
781;SDS011;374;52.568;13.402;2022-09-09T12:58:25;3.30;;;2.60;;
781;SDS011;374;52.568;13.402;2022-09-09T13:00:53;3.97;;;2.50;;
781;SDS011;374;52.568;13.402;2022-09-09T13:03:21;5.83;;;2.97;;
781;SDS011;374;52.568;13.402;2022-09-09T13:05:48;4.00;;;2.50;;
781;SDS011;374;52.568;13.402;2022-09-09T13:08:14;2.63;;;2.40;;
781;SDS011;374;52.568;13.402;2022-09-09T13:10:51;2.10;;;2.00;;
781;SDS011;374;52.568;13.402;2022-09-09T13:13:22;3.37;;;3.10;;
781;SDS011;374;52.568;13.402;2022-09-09T13:15:52;4.53;;;3.60;;
781;SDS011;374;52.568;13.402;2022-09-09T13:18:21;4.03;;;3.10;;
781;SDS011;374;52.568;13.402;2022-09-09T13:20:49;2.50;;;2.30;;
781;SDS011;374;52.568;13.402;2022-09-09T13:23:15;5.10;;;3.20;;
781;SDS011;374;52.568;13.402;2022-09-09T13:25:52;6.57;;;4.10;;
781;SDS011;374;52.568;13.402;2022-09-09T13:28:23;2.30;;;2.10;;
781;SDS011;374;52.568;13.402;2022-09-09T13:30:55;2.93;;;2.70;;
781;SDS011;374;52.568;13.402;2022-09-09T13:33:28;3.20;;;2.53;;
781;SDS011;374;52.568;13.402;2022-09-09T13:35:56;5.10;;;3.03;;
781;SDS011;374;52.568;13.402;2022-09-09T13:38:24;4.17;;;2.90;;
781;SDS011;374;52.568;13.402;2022-09-09T13:41:06;3.23;;;2.50;;
781;SDS011;374;52.568;13.402;2022-09-09T13:43:34;5.40;;;3.17;;
781;SDS011;374;52.568;13.402;2022-09-09T13:46:21;3.00;;;2.40;;
781;SDS011;374;52.568;13.402;2022-09-09T13:48:58;2.57;;;1.80;;
781;SDS011;374;52.568;13.402;2022-09-09T13:51:35;3.23;;;2.30;;
781;SDS011;374;52.568;13.402;2022-09-09T13:54:02;5.40;;;2.20;;
781;SDS011;374;52.568;13.402;2022-09-09T13:56:35;4.43;;;1.97;;
781;SDS011;374;52.568;13.402;2022-09-09T13:59:03;5.07;;;2.50;;
781;SDS011;374;52.568;13.402;2022-09-09T14:01:29;6.50;;;1.60;;
781;SDS011;374;52.568;13.402;2022-09-09T14:03:56;4.87;;;3.30;;
781;SDS011;374;52.568;13.402;2022-09-09T14:06:21;2.20;;;1.67;;
781;SDS011;374;52.568;13.402;2022-09-09T14:08:48;2.57;;;2.33;;
781;SDS011;374;52.568;13.402;2022-09-09T14:11:15;4.53;;;2.20;;
781;SDS011;374;52.568;13.402;2022-09-09T14:13:41;4.00;;;2.50;;
781;SDS011;374;52.568;13.402;2022-09-09T14:16:06;2.73;;;2.30;;
781;SDS011;374;52.568;13.402;2022-09-09T14:18:32;2.47;;;2.27;;
781;SDS011;374;52.568;13.402;2022-09-09T14:20:58;3.00;;;2.17;;
781;SDS011;374;52.568;13.402;2022-09-09T14:23:24;4.23;;;2.23;;
781;SDS011;374;52.568;13.402;2022-09-09T14:25:50;3.20;;;1.67;;
781;SDS011;374;52.568;13.402;2022-09-09T14:28:16;2.27;;;1.80;;
781;SDS011;374;52.568;13.402;2022-09-09T14:30:42;4.20;;;2.40;;
781;SDS011;374;52.568;13.402;2022-09-09T14:33:12;7.23;;;5.00;;
781;SDS011;374;52.568;13.402;2022-09-09T14:35:39;6.37;;;4.20;;
781;SDS011;374;52.568;13.402;2022-09-09T14:38:06;5.20;;;3.37;;
781;SDS011;374;52.568;13.402;2022-09-09T14:40:33;4.93;;;3.10;;
781;SDS011;374;52.568;13.402;2022-09-09T14:43:00;3.53;;;2.40;;
781;SDS011;374;52.568;13.402;2022-09-09T14:45:26;7.17;;;3.93;;
781;SDS011;374;52.568;13.402;2022-09-09T14:47:52;2.80;;;1.80;;
781;SDS011;374;52.568;13.402;2022-09-09T14:50:18;4.10;;;2.60;;
781;SDS011;374;52.568;13.402;2022-09-09T14:52:45;3.47;;;2.67;;
781;SDS011;374;52.568;13.402;2022-09-09T14:55:10;7.33;;;5.17;;
781;SDS011;374;52.568;13.402;2022-09-09T14:57:36;6.07;;;3.97;;
781;SDS011;374;52.568;13.402;2022-09-09T15:00:05;5.57;;;3.47;;
781;SDS011;374;52.568;13.402;2022-09-09T15:02:32;4.73;;;3.50;;
781;SDS011;374;52.568;13.402;2022-09-09T15:04:57;4.63;;;3.87;;
781;SDS011;374;52.568;13.402;2022-09-09T15:07:23;4.70;;;4.20;;
781;SDS011;374;52.568;13.402;2022-09-09T15:09:49;8.00;;;4.00;;
781;SDS011;374;52.568;13.402;2022-09-09T15:12:15;6.23;;;3.40;;
781;SDS011;374;52.568;13.402;2022-09-09T15:14:43;4.60;;;3.23;;
781;SDS011;374;52.568;13.402;2022-09-09T15:17:09;6.90;;;4.23;;
781;SDS011;374;52.568;13.402;2022-09-09T15:19:34;3.77;;;3.33;;
781;SDS011;374;52.568;13.402;2022-09-09T15:22:01;4.90;;;3.13;;
781;SDS011;374;52.568;13.402;2022-09-09T15:24:27;3.40;;;3.03;;
781;SDS011;374;52.568;13.402;2022-09-09T15:26:52;5.50;;;2.90;;
781;SDS011;374;52.568;13.402;2022-09-09T15:29:19;3.77;;;2.80;;
781;SDS011;374;52.568;13.402;2022-09-09T15:31:44;4.00;;;2.70;;
781;SDS011;374;52.568;13.402;2022-09-09T15:34:10;5.33;;;3.00;;
781;SDS011;374;52.568;13.402;2022-09-09T15:36:37;3.90;;;2.60;;
781;SDS011;374;52.568;13.402;2022-09-09T15:39:08;3.70;;;2.93;;
781;SDS011;374;52.568;13.402;2022-09-09T15:41:37;5.43;;;3.60;;
781;SDS011;374;52.568;13.402;2022-09-09T15:44:04;7.03;;;3.53;;
781;SDS011;374;52.568;13.402;2022-09-09T15:46:37;9.00;;;3.20;;
781;SDS011;374;52.568;13.402;2022-09-09T15:49:05;3.20;;;2.50;;
781;SDS011;374;52.568;13.402;2022-09-09T15:51:36;3.53;;;3.23;;
781;SDS011;374;52.568;13.402;2022-09-09T15:54:06;7.30;;;4.20;;
781;SDS011;374;52.568;13.402;2022-09-09T15:56:32;5.70;;;3.60;;
781;SDS011;374;52.568;13.402;2022-09-09T15:58:58;7.37;;;3.90;;
781;SDS011;374;52.568;13.402;2022-09-09T16:01:25;9.80;;;3.43;;
781;SDS011;374;52.568;13.402;2022-09-09T16:03:51;4.20;;;2.87;;
781;SDS011;374;52.568;13.402;2022-09-09T16:06:19;3.37;;;3.07;;
781;SDS011;374;52.568;13.402;2022-09-09T16:08:46;5.73;;;3.50;;
781;SDS011;374;52.568;13.402;2022-09-09T16:11:18;8.23;;;3.60;;
781;SDS011;374;52.568;13.402;2022-09-09T16:13:46;5.83;;;2.83;;
781;SDS011;374;52.568;13.402;2022-09-09T16:16:13;5.10;;;2.47;;
781;SDS011;374;52.568;13.402;2022-09-09T16:18:41;2.60;;;2.40;;
781;SDS011;374;52.568;13.402;2022-09-09T16:21:08;7.83;;;3.00;;
781;SDS011;374;52.568;13.402;2022-09-09T16:23:45;10.00;;;4.40;;
781;SDS011;374;52.568;13.402;2022-09-09T16:26:12;7.30;;;3.43;;
781;SDS011;374;52.568;13.402;2022-09-09T16:28:39;6.23;;;3.57;;
781;SDS011;374;52.568;13.402;2022-09-09T16:31:06;4.80;;;2.80;;
781;SDS011;374;52.568;13.402;2022-09-09T16:33:34;6.53;;;3.10;;
781;SDS011;374;52.568;13.402;2022-09-09T16:36:04;3.90;;;2.63;;
781;SDS011;374;52.568;13.402;2022-09-09T16:38:31;6.73;;;3.57;;
781;SDS011;374;52.568;13.402;2022-09-09T16:41:01;5.60;;;3.37;;
781;SDS011;374;52.568;13.402;2022-09-09T16:43:31;7.30;;;3.80;;
781;SDS011;374;52.568;13.402;2022-09-09T16:45:57;18.53;;;5.40;;
781;SDS011;374;52.568;13.402;2022-09-09T16:48:25;9.40;;;5.00;;
781;SDS011;374;52.568;13.402;2022-09-09T16:50:51;9.93;;;4.20;;
781;SDS011;374;52.568;13.402;2022-09-09T16:53:17;8.97;;;3.90;;
781;SDS011;374;52.568;13.402;2022-09-09T16:55:43;9.37;;;4.20;;
781;SDS011;374;52.568;13.402;2022-09-09T16:58:10;14.00;;;5.50;;
781;SDS011;374;52.568;13.402;2022-09-09T17:00:36;9.07;;;6.23;;
781;SDS011;374;52.568;13.402;2022-09-09T17:03:01;10.37;;;5.83;;
781;SDS011;374;52.568;13.402;2022-09-09T17:05:27;7.73;;;4.70;;
781;SDS011;374;52.568;13.402;2022-09-09T17:07:53;13.57;;;3.93;;
781;SDS011;374;52.568;13.402;2022-09-09T17:10:22;3.90;;;3.00;;
781;SDS011;374;52.568;13.402;2022-09-09T17:12:48;4.80;;;3.03;;
781;SDS011;374;52.568;13.402;2022-09-09T17:15:14;3.73;;;2.70;;
781;SDS011;374;52.568;13.402;2022-09-09T17:17:40;5.83;;;3.50;;
781;SDS011;374;52.568;13.402;2022-09-09T17:20:09;8.73;;;3.70;;
781;SDS011;374;52.568;13.402;2022-09-09T17:22:34;6.07;;;4.63;;
781;SDS011;374;52.568;13.402;2022-09-09T17:25:00;8.27;;;5.13;;
781;SDS011;374;52.568;13.402;2022-09-09T17:27:25;5.93;;;3.90;;
781;SDS011;374;52.568;13.402;2022-09-09T17:29:51;3.40;;;3.10;;
781;SDS011;374;52.568;13.402;2022-09-09T17:32:16;4.80;;;2.90;;
781;SDS011;374;52.568;13.402;2022-09-09T17:34:43;7.00;;;3.50;;
781;SDS011;374;52.568;13.402;2022-09-09T17:37:08;4.23;;;2.90;;
781;SDS011;374;52.568;13.402;2022-09-09T17:39:34;3.63;;;3.43;;
781;SDS011;374;52.568;13.402;2022-09-09T17:42:00;6.17;;;3.60;;
781;SDS011;374;52.568;13.402;2022-09-09T17:44:26;3.33;;;2.37;;